Time;durP1;ratioP1;P1;durP2;ratioP2;P2;SDS_P1;SDS_P2;PMS_P1;PMS_P2;Temp;Humidity;BMP_temperature;BMP_pressure;BME280_temperature;BME280_humidity;BME280_pressure;Samples;Min_cycle;Max_cycle;Signal;HPM_P1;HPM_P2
2023/05/12 00:00:30;;;;;;;;;;;11.40;99.90;;;;;;4977327;28;19934;-82
2023/05/12 00:03:01;;;;;;;;;;;11.40;99.90;;;;;;4961862;28;19933;-80
2023/05/12 00:05:29;;;;;;;;;;;11.40;99.90;;;;;;4988017;28;19930;-81
2023/05/12 00:07:56;;;;;;;;;;;11.40;99.90;;;;;;4987490;28;19966;-81
2023/05/12 00:10:24;;;;;;;;;;;11.40;99.90;;;;;;4983246;28;19934;-81
2023/05/12 00:12:51;;;;;;;;;;;11.40;99.90;;;;;;4989830;28;19934;-83
2023/05/12 00:15:19;;;;;;;;;;;11.40;99.90;;;;;;4986075;28;20301;-80
2023/05/12 00:17:48;;;;;;;;;;;11.40;99.90;;;;;;4987245;28;19973;-81
2023/05/12 00:20:15;;;;;;;;;;;11.40;99.90;;;;;;4984652;28;19934;-82
2023/05/12 00:22:44;;;;;;;;;;;11.40;99.90;;;;;;4989720;28;19933;-81
2023/05/12 00:25:18;;;;;;;;;;;11.40;99.90;;;;;;4969529;28;20005;-82
2023/05/12 00:27:47;;;;;;;;;;;11.40;99.90;;;;;;4989519;28;19985;-80
2023/05/12 00:30:14;;;;;;;;;;;11.40;99.90;;;;;;4967424;28;19926;-81
2023/05/12 00:32:42;;;;;;;;;;;11.40;99.90;;;;;;4990252;28;19936;-81
2023/05/12 00:35:09;;;;;;;;;;;11.40;99.90;;;;;;4967069;28;20448;-81
2023/05/12 00:37:37;;;;;;;;;;;11.40;99.90;;;;;;4986444;28;19934;-81
2023/05/12 00:40:06;;;;;;;;;;;11.40;99.90;;;;;;4986913;28;19932;-81
2023/05/12 00:42:34;;;;;;;;;;;11.40;99.90;;;;;;4992992;28;19980;-80
2023/05/12 00:45:01;;;;;;;;;;;11.30;99.90;;;;;;4964828;28;20258;-80
2023/05/12 00:47:29;;;;;;;;;;;11.30;99.90;;;;;;4986473;28;19969;-80
2023/05/12 00:49:58;;;;;;;;;;;11.30;99.90;;;;;;4986036;28;19968;-80
2023/05/12 00:52:26;;;;;;;;;;;11.30;99.90;;;;;;4970894;28;19929;-80
2023/05/12 00:54:53;;;;;;;;;;;11.30;99.90;;;;;;4969646;28;20021;-81
2023/05/12 00:57:21;;;;;;;;;;;11.30;99.90;;;;;;4971192;28;19933;-81
2023/05/12 00:59:49;;;;;;;;;;;11.30;99.90;;;;;;4970658;28;19934;-80
2023/05/12 01:02:16;;;;;;;;;;;11.30;99.90;;;;;;4970213;28;19948;-81
2023/05/12 01:04:44;;;;;;;;;;;11.30;99.90;;;;;;4964881;28;19925;-82
2023/05/12 01:07:17;;;;;;;;;;;11.30;99.90;;;;;;4985034;28;19940;-82
2023/05/12 01:09:45;;;;;;;;;;;11.30;99.90;;;;;;4985181;28;20006;-80
2023/05/12 01:12:12;;;;;;;;;;;11.30;99.90;;;;;;4963854;28;19930;-82
2023/05/12 01:14:41;;;;;;;;;;;11.30;99.90;;;;;;4972734;28;19934;-82
2023/05/12 01:17:10;;;;;;;;;;;11.30;99.90;;;;;;4970557;28;19934;-81
2023/05/12 01:19:41;;;;;;;;;;;11.30;99.90;;;;;;4969674;28;19929;-79
2023/05/12 01:22:17;;;;;;;;;;;11.30;99.90;;;;;;4969599;28;19936;-80
2023/05/12 01:24:49;;;;;;;;;;;11.30;99.90;;;;;;4968866;28;19929;-79
2023/05/12 01:27:24;;;;;;;;;;;11.30;99.90;;;;;;4967820;28;20098;-78
2023/05/12 01:29:56;;;;;;;;;;;11.30;99.90;;;;;;4960285;28;20029;-78
2023/05/12 01:32:23;;;;;;;;;;;11.30;99.90;;;;;;4979792;28;19926;-78
2023/05/12 01:34:50;;;;;;;;;;;11.30;99.90;;;;;;4968446;28;19934;-78
2023/05/12 01:37:20;;;;;;;;;;;11.20;99.90;;;;;;4972448;28;19926;-82
2023/05/12 01:39:52;;;;;;;;;;;11.20;99.90;;;;;;4988973;28;19932;-81
2023/05/12 01:42:23;;;;;;;;;;;11.20;99.90;;;;;;4974665;28;19931;-79
2023/05/12 01:44:51;;;;;;;;;;;11.20;99.90;;;;;;4973603;28;20028;-82
2023/05/12 01:47:20;;;;;;;;;;;11.20;99.90;;;;;;4988484;28;19981;-81
2023/05/12 01:49:53;;;;;;;;;;;11.20;99.90;;;;;;4989971;28;19949;-79
2023/05/12 01:52:23;;;;;;;;;;;11.20;99.90;;;;;;4970140;28;19929;-79
2023/05/12 01:54:52;;;;;;;;;;;11.20;99.90;;;;;;4971326;28;20008;-81
2023/05/12 01:57:29;;;;;;;;;;;11.20;99.90;;;;;;4973506;28;19930;-81
2023/05/12 01:59:59;;;;;;;;;;;11.20;99.90;;;;;;4967784;28;19933;-80
2023/05/12 02:02:27;;;;;;;;;;;11.20;99.90;;;;;;4990271;28;19925;-80
2023/05/12 02:04:55;;;;;;;;;;;11.20;99.90;;;;;;4988980;28;19949;-79
2023/05/12 02:07:21;;;;;;;;;;;11.20;99.90;;;;;;4972246;28;19926;-83
2023/05/12 02:09:55;;;;;;;;;;;11.20;99.90;;;;;;4987364;28;19992;-82
2023/05/12 02:12:26;;;;;;;;;;;11.20;99.90;;;;;;4992434;28;19926;-82
2023/05/12 02:14:53;;;;;;;;;;;11.20;99.90;;;;;;4971136;28;20370;-81
2023/05/12 02:17:20;;;;;;;;;;;11.20;99.90;;;;;;4985664;28;19926;-80
2023/05/12 02:23:09;;;;;;;;;;;11.20;99.90;;;;;;4970635;28;19925;-82
2023/05/12 02:25:37;;;;;;;;;;;11.20;99.90;;;;;;4987770;28;19934;-81
2023/05/12 02:28:09;;;;;;;;;;;11.20;99.90;;;;;;4986907;28;20418;-80
2023/05/12 02:30:36;;;;;;;;;;;11.20;99.90;;;;;;4989716;28;20315;-81
2023/05/12 02:33:04;;;;;;;;;;;11.10;99.90;;;;;;4969904;28;20020;-81
2023/05/12 02:35:32;;;;;;;;;;;11.10;99.90;;;;;;4973245;28;19940;-82
2023/05/12 02:37:59;;;;;;;;;;;11.10;99.90;;;;;;4968717;28;20295;-79
2023/05/12 02:40:26;;;;;;;;;;;11.10;99.90;;;;;;4968626;28;19933;-79
2023/05/12 02:42:55;;;;;;;;;;;11.10;99.90;;;;;;4967404;28;19977;-80
2023/05/12 02:45:23;;;;;;;;;;;11.10;99.90;;;;;;4974437;28;19930;-80
2023/05/12 02:47:50;;;;;;;;;;;11.10;99.90;;;;;;4986093;28;19937;-81
2023/05/12 02:50:18;;;;;;;;;;;11.10;99.90;;;;;;4991525;28;19926;-82
2023/05/12 02:52:44;;;;;;;;;;;11.10;99.90;;;;;;4983681;28;19980;-81
2023/05/12 02:55:11;;;;;;;;;;;11.10;99.90;;;;;;4972585;28;20016;-82
2023/05/12 02:57:39;;;;;;;;;;;11.10;99.90;;;;;;4987948;28;19976;-80
2023/05/12 03:00:07;;;;;;;;;;;11.10;99.90;;;;;;4955477;28;20202;-81
2023/05/12 03:02:39;;;;;;;;;;;11.10;99.90;;;;;;4978042;28;20464;-79
2023/05/12 03:05:08;;;;;;;;;;;11.10;99.90;;;;;;4968098;28;20312;-78
2023/05/12 03:07:38;;;;;;;;;;;11.10;99.90;;;;;;4981522;28;19930;-79
2023/05/12 03:10:06;;;;;;;;;;;11.10;99.90;;;;;;4978601;28;19942;-78
2023/05/12 03:12:33;;;;;;;;;;;11.10;99.90;;;;;;4961854;28;19926;-78
2023/05/12 03:15:00;;;;;;;;;;;11.10;99.90;;;;;;4964176;28;19988;-79
2023/05/12 03:17:28;;;;;;;;;;;11.10;99.90;;;;;;4958760;28;19930;-78
2023/05/12 03:19:56;;;;;;;;;;;11.10;99.90;;;;;;4966957;28;20374;-78
2023/05/12 03:22:24;;;;;;;;;;;11.10;99.90;;;;;;4963975;28;20404;-79
2023/05/12 03:24:51;;;;;;;;;;;11.10;99.90;;;;;;4977409;28;19934;-78
2023/05/12 03:27:20;;;;;;;;;;;11.10;99.90;;;;;;4965875;28;19942;-78
2023/05/12 03:29:47;;;;;;;;;;;11.10;99.90;;;;;;4961661;28;19984;-80
2023/05/12 03:32:15;;;;;;;;;;;11.00;99.90;;;;;;4980982;28;19933;-80
2023/05/12 03:34:45;;;;;;;;;;;11.00;99.90;;;;;;4975988;28;20311;-80
2023/05/12 03:37:13;;;;;;;;;;;11.00;99.90;;;;;;4961129;28;19955;-83
2023/05/12 03:39:40;;;;;;;;;;;11.00;99.90;;;;;;4966150;28;19958;-80
2023/05/12 03:42:07;;;;;;;;;;;11.00;99.90;;;;;;4968201;28;20388;-82
2023/05/12 03:44:34;;;;;;;;;;;11.00;99.90;;;;;;4970145;28;19933;-80
2023/05/12 03:47:01;;;;;;;;;;;11.00;99.90;;;;;;4971643;28;19930;-83
2023/05/12 03:49:28;;;;;;;;;;;11.00;99.90;;;;;;4989386;28;19949;-80
2023/05/12 03:51:55;;;;;;;;;;;11.00;99.90;;;;;;4974287;28;19929;-82
2023/05/12 03:54:23;;;;;;;;;;;11.00;99.90;;;;;;4980776;28;20388;-81
2023/05/12 03:56:52;;;;;;;;;;;11.00;99.90;;;;;;4966678;28;20456;-82
2023/05/12 03:59:18;;;;;;;;;;;11.00;99.90;;;;;;4966027;28;19969;-82
2023/05/12 04:01:45;;;;;;;;;;;11.00;99.90;;;;;;4977486;28;20681;-80
2023/05/12 04:04:13;;;;;;;;;;;11.00;99.90;;;;;;4992956;28;19930;-81
2023/05/12 04:06:40;;;;;;;;;;;11.00;99.90;;;;;;4979064;28;19926;-81
2023/05/12 04:09:08;;;;;;;;;;;11.00;99.90;;;;;;4981366;28;20017;-81
2023/05/12 04:11:38;;;;;;;;;;;11.00;99.90;;;;;;4977567;28;19955;-82
2023/05/12 04:14:04;;;;;;;;;;;11.00;99.90;;;;;;4973260;28;20032;-81
2023/05/12 04:16:31;;;;;;;;;;;11.00;99.90;;;;;;4972142;28;19926;-81
2023/05/12 04:18:58;;;;;;;;;;;11.00;99.90;;;;;;4976409;28;20505;-81
2023/05/12 04:21:27;;;;;;;;;;;11.00;99.90;;;;;;4982119;28;19926;-80
2023/05/12 04:23:55;;;;;;;;;;;11.00;99.90;;;;;;4996048;28;19926;-81
2023/05/12 04:26:25;;;;;;;;;;;11.00;99.90;;;;;;4977649;28;19934;-80
2023/05/12 04:28:54;;;;;;;;;;;11.00;99.90;;;;;;4972373;28;20044;-80
2023/05/12 04:31:22;;;;;;;;;;;11.00;99.90;;;;;;4975289;28;19933;-80
2023/05/12 04:33:50;;;;;;;;;;;11.00;99.90;;;;;;4979523;28;19961;-80
2023/05/12 04:36:19;;;;;;;;;;;10.90;99.90;;;;;;4976543;28;19929;-81
2023/05/12 04:38:46;;;;;;;;;;;10.90;99.90;;;;;;4970806;28;19934;-80
2023/05/12 04:41:13;;;;;;;;;;;10.90;99.90;;;;;;4974097;28;19934;-80
2023/05/12 04:43:40;;;;;;;;;;;10.90;99.90;;;;;;4975112;28;19925;-78
2023/05/12 04:46:08;;;;;;;;;;;10.90;99.90;;;;;;4973490;28;19948;-79
2023/05/12 04:48:40;;;;;;;;;;;10.90;99.90;;;;;;4970019;28;19934;-81
2023/05/12 04:51:09;;;;;;;;;;;10.90;99.90;;;;;;4985601;28;19926;-79
2023/05/12 04:53:35;;;;;;;;;;;10.90;99.90;;;;;;4979785;28;19940;-79
2023/05/12 04:56:05;;;;;;;;;;;10.90;99.90;;;;;;4971433;28;19940;-80
2023/05/12 04:58:37;;;;;;;;;;;10.90;99.90;;;;;;4988216;28;19933;-80
2023/05/12 05:01:04;;;;;;;;;;;10.90;99.90;;;;;;4977165;28;20444;-79
2023/05/12 05:03:34;;;;;;;;;;;10.90;99.90;;;;;;4972710;28;20285;-79
2023/05/12 05:06:01;;;;;;;;;;;10.90;99.90;;;;;;4962035;28;19930;-79
2023/05/12 05:08:28;;;;;;;;;;;10.90;99.90;;;;;;4984294;28;20518;-79
2023/05/12 05:10:55;;;;;;;;;;;10.90;99.90;;;;;;4983448;28;20632;-79
2023/05/12 05:16:07;;;;;;;;;;;10.90;99.90;;;;;;4991468;28;20020;-80
2023/05/12 05:18:36;;;;;;;;;;;10.90;99.90;;;;;;4991091;28;19937;-80
2023/05/12 05:21:03;;;;;;;;;;;10.90;99.90;;;;;;4989362;28;19936;-81
2023/05/12 05:23:30;;;;;;;;;;;10.90;99.90;;;;;;4987465;28;19926;-77
2023/05/12 05:25:57;;;;;;;;;;;10.90;99.90;;;;;;4975291;28;20335;-80
2023/05/12 05:28:25;;;;;;;;;;;10.90;99.90;;;;;;4980815;28;19973;-81
2023/05/12 05:30:52;;;;;;;;;;;10.90;99.90;;;;;;4984427;28;19933;-81
2023/05/12 05:33:19;;;;;;;;;;;10.90;99.90;;;;;;4978682;28;19988;-81
2023/05/12 05:35:48;;;;;;;;;;;10.90;99.90;;;;;;4994536;28;19926;-82
2023/05/12 05:38:15;;;;;;;;;;;10.90;99.90;;;;;;4971691;28;20198;-81
2023/05/12 05:40:41;;;;;;;;;;;10.90;99.90;;;;;;4986661;28;19933;-81
2023/05/12 05:43:08;;;;;;;;;;;10.90;99.90;;;;;;4992244;28;20299;-82
2023/05/12 05:45:36;;;;;;;;;;;10.90;99.90;;;;;;4995165;28;19937;-82
2023/05/12 05:48:03;;;;;;;;;;;10.90;99.90;;;;;;4991315;28;19965;-80
2023/05/12 05:50:30;;;;;;;;;;;10.80;99.90;;;;;;4975570;28;20556;-81
2023/05/12 05:52:58;;;;;;;;;;;10.90;99.90;;;;;;4977293;28;19933;-81
2023/05/12 05:55:25;;;;;;;;;;;10.90;99.90;;;;;;4987609;28;19933;-82
2023/05/12 05:57:52;;;;;;;;;;;10.90;99.90;;;;;;4975074;28;20056;-79
2023/05/12 06:00:19;;;;;;;;;;;10.80;99.90;;;;;;4976986;28;19933;-80
2023/05/12 06:02:50;;;;;;;;;;;10.90;99.90;;;;;;4974316;28;19932;-81
2023/05/12 06:05:19;;;;;;;;;;;10.90;99.90;;;;;;4982298;28;19925;-81
2023/05/12 06:07:46;;;;;;;;;;;10.90;99.90;;;;;;4976389;28;20443;-81
2023/05/12 06:10:15;;;;;;;;;;;10.90;99.90;;;;;;4984105;28;19949;-79
2023/05/12 06:12:42;;;;;;;;;;;10.80;99.90;;;;;;4990154;28;19984;-80
2023/05/12 06:15:09;;;;;;;;;;;10.90;99.90;;;;;;4974073;28;19926;-81
2023/05/12 06:17:36;;;;;;;;;;;10.80;99.90;;;;;;4994376;28;22670;-79
2023/05/12 06:20:05;;;;;;;;;;;10.80;99.90;;;;;;4993332;28;20032;-81
2023/05/12 06:22:33;;;;;;;;;;;10.80;99.90;;;;;;4980109;28;19984;-79
2023/05/12 06:25:00;;;;;;;;;;;10.80;99.90;;;;;;4978419;28;19946;-81
2023/05/12 06:27:28;;;;;;;;;;;10.80;99.90;;;;;;4995099;28;19988;-82
2023/05/12 06:29:55;;;;;;;;;;;10.90;99.90;;;;;;4973030;28;19937;-81
2023/05/12 06:32:22;;;;;;;;;;;10.80;99.90;;;;;;4992164;28;19932;-81
2023/05/12 06:34:49;;;;;;;;;;;10.80;99.90;;;;;;4975278;28;19925;-79
2023/05/12 06:37:15;;;;;;;;;;;10.90;99.90;;;;;;4988807;28;20384;-80
2023/05/12 06:39:42;;;;;;;;;;;10.80;99.90;;;;;;4974162;28;20049;-78
2023/05/12 06:42:10;;;;;;;;;;;10.90;99.90;;;;;;4995190;28;19940;-81
2023/05/12 06:44:42;;;;;;;;;;;10.80;99.90;;;;;;4996504;28;19976;-81
2023/05/12 06:47:09;;;;;;;;;;;10.80;99.90;;;;;;4977978;28;19910;-80
2023/05/12 06:49:37;;;;;;;;;;;10.80;99.90;;;;;;4980137;28;19938;-80
2023/05/12 06:52:04;;;;;;;;;;;10.90;99.90;;;;;;4995709;28;19930;-81
2023/05/12 06:54:32;;;;;;;;;;;10.80;99.90;;;;;;4994982;28;20365;-82
2023/05/12 06:56:59;;;;;;;;;;;10.90;99.90;;;;;;4998896;28;20466;-80
2023/05/12 06:59:26;;;;;;;;;;;10.90;99.90;;;;;;4979691;28;19934;-80
2023/05/12 07:01:54;;;;;;;;;;;10.90;99.90;;;;;;4991989;28;19961;-80
2023/05/12 07:04:21;;;;;;;;;;;10.90;99.90;;;;;;5000732;28;19926;-80
2023/05/12 07:06:48;;;;;;;;;;;10.80;99.90;;;;;;4995852;28;19933;-81
2023/05/12 07:09:17;;;;;;;;;;;10.90;99.90;;;;;;4994574;28;20401;-79
2023/05/12 07:11:44;;;;;;;;;;;10.90;99.90;;;;;;4977169;28;19940;-79
2023/05/12 07:14:11;;;;;;;;;;;10.90;99.90;;;;;;4990341;28;19926;-78
2023/05/12 07:16:38;;;;;;;;;;;10.90;99.90;;;;;;4974614;28;20394;-77
2023/05/12 07:19:07;;;;;;;;;;;10.90;99.90;;;;;;4987044;28;19933;-78
2023/05/12 07:21:35;;;;;;;;;;;10.90;99.90;;;;;;4992075;28;19926;-78
2023/05/12 07:24:02;;;;;;;;;;;10.90;99.90;;;;;;4993088;28;20293;-77
2023/05/12 07:26:29;;;;;;;;;;;10.90;99.90;;;;;;4972044;28;19934;-79
2023/05/12 07:28:56;;;;;;;;;;;10.90;99.90;;;;;;4969574;28;19953;-78
2023/05/12 07:31:22;;;;;;;;;;;10.90;99.90;;;;;;4980514;28;19932;-78
2023/05/12 07:33:49;;;;;;;;;;;10.90;99.90;;;;;;4974439;28;19957;-77
2023/05/12 07:36:17;;;;;;;;;;;10.90;99.90;;;;;;4987512;28;19926;-79
2023/05/12 07:38:44;;;;;;;;;;;10.90;99.90;;;;;;4992537;28;20293;-78
2023/05/12 07:41:11;;;;;;;;;;;10.90;99.90;;;;;;4991689;28;19925;-79
2023/05/12 07:43:38;;;;;;;;;;;10.90;99.90;;;;;;4986132;28;19929;-79
2023/05/12 07:46:05;;;;;;;;;;;10.90;99.90;;;;;;4986219;28;19925;-79
2023/05/12 07:48:38;;;;;;;;;;;10.90;99.90;;;;;;4990897;28;20363;-78
2023/05/12 07:51:05;;;;;;;;;;;10.90;99.90;;;;;;4983611;28;19985;-79
2023/05/12 07:53:33;;;;;;;;;;;10.90;99.90;;;;;;4988303;28;19936;-79
2023/05/12 07:56:00;;;;;;;;;;;10.90;99.90;;;;;;4976810;28;19926;-78
2023/05/12 07:58:27;;;;;;;;;;;10.90;99.90;;;;;;4969933;28;19933;-79
2023/05/12 08:00:55;;;;;;;;;;;10.90;99.90;;;;;;4984767;28;19926;-79
2023/05/12 08:03:22;;;;;;;;;;;10.90;99.90;;;;;;4973116;28;19933;-78
2023/05/12 08:05:49;;;;;;;;;;;10.90;99.90;;;;;;4991066;28;19941;-78
2023/05/12 08:08:16;;;;;;;;;;;10.90;99.90;;;;;;4987660;28;19926;-82
2023/05/12 08:10:44;;;;;;;;;;;11.00;99.90;;;;;;4972000;28;21330;-82
2023/05/12 08:13:11;;;;;;;;;;;10.90;99.90;;;;;;4996656;28;19972;-82
2023/05/12 08:15:38;;;;;;;;;;;10.90;99.90;;;;;;4990480;28;19965;-78
2023/05/12 08:18:05;;;;;;;;;;;11.00;99.90;;;;;;4966527;28;19926;-78
2023/05/12 08:20:32;;;;;;;;;;;11.00;99.90;;;;;;4991200;28;19957;-80
2023/05/12 08:22:59;;;;;;;;;;;11.00;99.90;;;;;;4970922;28;19926;-78
2023/05/12 08:25:29;;;;;;;;;;;11.00;99.90;;;;;;4987519;28;19926;-78
2023/05/12 08:27:58;;;;;;;;;;;11.00;99.90;;;;;;4968991;28;19926;-78
2023/05/12 08:30:25;;;;;;;;;;;11.00;99.90;;;;;;4986531;28;19931;-78
2023/05/12 08:32:52;;;;;;;;;;;11.00;99.90;;;;;;4986097;28;20020;-78
2023/05/12 08:35:19;;;;;;;;;;;11.00;99.90;;;;;;4988319;28;19926;-78
2023/05/12 08:37:46;;;;;;;;;;;11.00;99.90;;;;;;4987217;28;19988;-79
2023/05/12 08:40:16;;;;;;;;;;;11.00;99.90;;;;;;4986641;28;19980;-78
2023/05/12 08:42:43;;;;;;;;;;;11.10;99.90;;;;;;4989531;28;19941;-79
2023/05/12 08:45:12;;;;;;;;;;;11.10;99.90;;;;;;4988149;28;20535;-79
2023/05/12 08:47:39;;;;;;;;;;;11.10;99.90;;;;;;4983730;28;19925;-79
2023/05/12 08:50:07;;;;;;;;;;;11.10;99.90;;;;;;4989507;28;19945;-78
2023/05/12 08:52:34;;;;;;;;;;;11.10;99.90;;;;;;4984403;28;20047;-79
2023/05/12 08:55:02;;;;;;;;;;;11.10;99.90;;;;;;4990057;28;19930;-80
2023/05/12 08:57:31;;;;;;;;;;;11.10;99.90;;;;;;4988936;28;19929;-78
2023/05/12 08:59:58;;;;;;;;;;;11.10;99.90;;;;;;4984287;28;19949;-78
2023/05/12 09:02:27;;;;;;;;;;;11.20;99.90;;;;;;4989163;28;19935;-79
2023/05/12 09:04:54;;;;;;;;;;;11.20;99.90;;;;;;4989249;28;20289;-79
2023/05/12 09:07:23;;;;;;;;;;;11.20;99.90;;;;;;4962966;28;19926;-79
2023/05/12 09:09:52;;;;;;;;;;;11.20;99.90;;;;;;4988400;28;20344;-79
2023/05/12 09:12:20;;;;;;;;;;;11.20;99.90;;;;;;4989438;28;19926;-79
2023/05/12 09:14:52;;;;;;;;;;;11.20;99.90;;;;;;4987254;28;20301;-79
2023/05/12 09:17:19;;;;;;;;;;;11.30;99.90;;;;;;4986175;28;19932;-80
2023/05/12 09:19:47;;;;;;;;;;;11.30;99.90;;;;;;4975718;28;19972;-79
2023/05/12 09:22:15;;;;;;;;;;;11.30;99.90;;;;;;4970405;28;19930;-79
2023/05/12 09:24:43;;;;;;;;;;;11.30;99.90;;;;;;4989711;28;19977;-79
2023/05/12 09:27:10;;;;;;;;;;;11.40;99.90;;;;;;4983472;28;19926;-79
2023/05/12 09:29:47;;;;;;;;;;;11.40;99.90;;;;;;4990559;28;19980;-78
2023/05/12 09:32:14;;;;;;;;;;;11.40;99.90;;;;;;4985890;28;19976;-79
2023/05/12 09:34:43;;;;;;;;;;;11.40;99.90;;;;;;4976239;28;19929;-78
2023/05/12 09:37:12;;;;;;;;;;;11.40;99.90;;;;;;4988456;28;20001;-81
2023/05/12 09:39:40;;;;;;;;;;;11.40;99.90;;;;;;4982306;28;19930;-78
2023/05/12 09:42:11;;;;;;;;;;;11.40;99.90;;;;;;4986737;28;19935;-78
2023/05/12 09:44:40;;;;;;;;;;;11.50;99.90;;;;;;4986706;28;19937;-79
2023/05/12 09:47:08;;;;;;;;;;;11.50;99.90;;;;;;4984726;28;19930;-79
2023/05/12 09:49:36;;;;;;;;;;;11.50;99.90;;;;;;4969337;28;19934;-78
2023/05/12 09:52:04;;;;;;;;;;;11.50;99.90;;;;;;4985932;28;20404;-79
2023/05/12 09:54:33;;;;;;;;;;;11.60;99.90;;;;;;4983704;28;19926;-81
2023/05/12 09:57:01;;;;;;;;;;;11.60;99.90;;;;;;4988754;28;20316;-79
2023/05/12 09:59:30;;;;;;;;;;;11.60;99.90;;;;;;4981457;28;20049;-78
2023/05/12 10:01:59;;;;;;;;;;;11.60;99.90;;;;;;4970157;28;19929;-79
2023/05/12 10:04:26;;;;;;;;;;;11.70;99.90;;;;;;4982026;28;19976;-78
2023/05/12 10:06:53;;;;;;;;;;;11.70;99.90;;;;;;4986884;28;19933;-79
2023/05/12 10:09:23;;;;;;;;;;;11.70;99.90;;;;;;4974011;28;19925;-78
2023/05/12 10:11:52;;;;;;;;;;;11.70;99.90;;;;;;4986223;28;19933;-78
2023/05/12 10:14:18;;;;;;;;;;;11.80;99.90;;;;;;4989270;28;19960;-78
2023/05/12 10:16:46;;;;;;;;;;;11.80;99.90;;;;;;4990438;28;19948;-80
2023/05/12 10:19:13;;;;;;;;;;;11.80;99.90;;;;;;4972793;28;20295;-78
2023/05/12 10:21:43;;;;;;;;;;;11.80;99.90;;;;;;4966645;28;19969;-78
2023/05/12 10:24:10;;;;;;;;;;;11.90;99.90;;;;;;4990638;28;19925;-78
2023/05/12 10:26:38;;;;;;;;;;;11.90;99.90;;;;;;4975456;28;19941;-79
2023/05/12 10:29:07;;;;;;;;;;;11.90;99.90;;;;;;4966288;28;20542;-79
2023/05/12 10:31:35;;;;;;;;;;;11.90;99.90;;;;;;4987211;28;19926;-79
2023/05/12 10:34:02;;;;;;;;;;;11.90;99.90;;;;;;4989678;28;19932;-79
2023/05/12 10:36:29;;;;;;;;;;;12.00;99.90;;;;;;4989351;28;19926;-78
2023/05/12 10:38:56;;;;;;;;;;;12.00;99.90;;;;;;4989831;28;19949;-79
2023/05/12 10:41:29;;;;;;;;;;;12.00;99.90;;;;;;4993125;28;20016;-79
2023/05/12 10:43:56;;;;;;;;;;;12.00;99.90;;;;;;4967835;28;19973;-78
2023/05/12 10:46:25;;;;;;;;;;;12.00;99.90;;;;;;4988829;28;19940;-79
2023/05/12 10:48:53;;;;;;;;;;;12.10;99.90;;;;;;4970553;28;20475;-80
2023/05/12 10:51:21;;;;;;;;;;;12.10;99.90;;;;;;4990952;28;19925;-79
2023/05/12 10:53:51;;;;;;;;;;;12.10;99.90;;;;;;4988914;28;19932;-80
2023/05/12 10:56:21;;;;;;;;;;;12.10;99.90;;;;;;4961076;28;19968;-79
2023/05/12 10:59:03;;;;;;;;;;;12.20;99.90;;;;;;4983534;28;19926;-81
2023/05/12 11:01:31;;;;;;;;;;;12.30;99.90;;;;;;4990663;28;19934;-79
2023/05/12 11:04:09;;;;;;;;;;;12.30;99.90;;;;;;4971336;28;19930;-79
2023/05/12 11:06:36;;;;;;;;;;;12.40;99.90;;;;;;4973510;28;20320;-79
2023/05/12 11:09:04;;;;;;;;;;;12.40;99.90;;;;;;4987767;28;19934;-78
2023/05/12 11:11:31;;;;;;;;;;;12.50;99.90;;;;;;4986604;28;19930;-78
2023/05/12 11:13:58;;;;;;;;;;;12.50;99.90;;;;;;4988605;28;20360;-79
2023/05/12 11:16:25;;;;;;;;;;;12.50;99.90;;;;;;4979623;28;19933;-79
2023/05/12 11:19:01;;;;;;;;;;;12.50;99.90;;;;;;4972329;28;20530;-80
2023/05/12 11:21:29;;;;;;;;;;;12.50;99.90;;;;;;4987023;28;20023;-79
2023/05/12 11:23:56;;;;;;;;;;;12.60;99.90;;;;;;4988804;28;19930;-79
2023/05/12 11:26:22;;;;;;;;;;;12.60;99.90;;;;;;4990799;28;20025;-81
2023/05/12 11:28:49;;;;;;;;;;;12.60;99.90;;;;;;4985196;28;19999;-78
2023/05/12 11:31:18;;;;;;;;;;;12.60;99.90;;;;;;4976250;28;19932;-78
2023/05/12 11:33:45;;;;;;;;;;;12.60;99.90;;;;;;4973599;28;19926;-78
2023/05/12 11:36:14;;;;;;;;;;;12.60;99.90;;;;;;4979945;28;20381;-80
2023/05/12 11:38:48;;;;;;;;;;;12.60;99.90;;;;;;4972919;28;19938;-83
2023/05/12 11:41:21;;;;;;;;;;;12.70;99.90;;;;;;4977293;28;19930;-82
2023/05/12 11:43:48;;;;;;;;;;;12.70;99.90;;;;;;4987811;28;19934;-79
2023/05/12 11:46:23;;;;;;;;;;;12.70;99.90;;;;;;4982579;28;19926;-81
2023/05/12 11:48:54;;;;;;;;;;;12.70;99.90;;;;;;4974562;28;21770;-80
2023/05/12 11:51:24;;;;;;;;;;;12.80;99.90;;;;;;4967215;28;19953;-80
2023/05/12 11:53:51;;;;;;;;;;;12.70;99.90;;;;;;4969773;28;19941;-80
2023/05/12 11:56:20;;;;;;;;;;;12.80;99.90;;;;;;4983600;28;20303;-82
2023/05/12 11:58:54;;;;;;;;;;;12.80;99.90;;;;;;4982523;28;19945;-80
2023/05/12 12:01:22;;;;;;;;;;;12.80;99.90;;;;;;4982483;28;19933;-81
2023/05/12 12:03:50;;;;;;;;;;;12.80;99.90;;;;;;4988124;28;19941;-78
2023/05/12 12:06:17;;;;;;;;;;;12.80;99.90;;;;;;4981232;28;20315;-79
2023/05/12 12:08:55;;;;;;;;;;;12.80;99.90;;;;;;4971664;28;19937;-82
2023/05/12 12:11:23;;;;;;;;;;;12.80;99.90;;;;;;4988238;28;19988;-83
2023/05/12 12:13:55;;;;;;;;;;;12.80;99.90;;;;;;4986126;28;19934;-79
2023/05/12 12:16:23;;;;;;;;;;;12.90;99.90;;;;;;4986314;28;19925;-81
2023/05/12 12:18:50;;;;;;;;;;;12.80;99.90;;;;;;4979305;28;20031;-82
2023/05/12 12:21:17;;;;;;;;;;;12.90;99.90;;;;;;4975737;28;19930;-80
2023/05/12 12:23:44;;;;;;;;;;;12.90;99.90;;;;;;4971819;28;20028;-82
2023/05/12 12:26:15;;;;;;;;;;;12.90;99.90;;;;;;4986184;28;19926;-80
2023/05/12 12:28:42;;;;;;;;;;;12.90;99.90;;;;;;4988842;28;20641;-79
2023/05/12 12:31:09;;;;;;;;;;;12.90;99.90;;;;;;4988607;28;19926;-81
2023/05/12 12:33:36;;;;;;;;;;;12.90;99.90;;;;;;4986870;28;19988;-81
2023/05/12 12:36:03;;;;;;;;;;;12.90;99.90;;;;;;4989030;28;19936;-80
2023/05/12 12:38:30;;;;;;;;;;;12.90;99.90;;;;;;4986058;28;19969;-80
2023/05/12 12:40:57;;;;;;;;;;;12.90;99.90;;;;;;4982973;28;20033;-80
2023/05/12 12:43:26;;;;;;;;;;;12.90;99.90;;;;;;4961535;28;19933;-79
2023/05/12 12:45:54;;;;;;;;;;;12.90;99.90;;;;;;4985972;28;20020;-81
2023/05/12 12:48:22;;;;;;;;;;;13.00;99.90;;;;;;4982407;28;19933;-80
2023/05/12 12:50:50;;;;;;;;;;;12.90;99.90;;;;;;4981385;28;19925;-81
2023/05/12 12:53:20;;;;;;;;;;;13.00;99.90;;;;;;4967789;28;19930;-80
2023/05/12 12:55:48;;;;;;;;;;;13.00;99.90;;;;;;4983913;28;19945;-79
2023/05/12 12:58:15;;;;;;;;;;;13.00;99.90;;;;;;4972355;28;19926;-80
2023/05/12 13:00:45;;;;;;;;;;;13.00;99.90;;;;;;4983812;28;20021;-80
2023/05/12 13:03:12;;;;;;;;;;;13.00;99.90;;;;;;4985785;28;19973;-80
2023/05/12 13:05:41;;;;;;;;;;;13.00;99.90;;;;;;4990214;28;19934;-80
2023/05/12 13:08:08;;;;;;;;;;;13.00;99.90;;;;;;4985112;28;19968;-82
2023/05/12 13:10:37;;;;;;;;;;;13.00;99.90;;;;;;4987266;28;22569;-80
2023/05/12 13:13:06;;;;;;;;;;;13.00;99.90;;;;;;4969936;28;19982;-79
2023/05/12 13:15:33;;;;;;;;;;;13.00;99.90;;;;;;4968687;28;19934;-79
2023/05/12 13:18:01;;;;;;;;;;;13.10;99.90;;;;;;4984792;28;19945;-80
2023/05/12 13:20:28;;;;;;;;;;;13.10;99.90;;;;;;4982157;28;19934;-80
2023/05/12 13:22:58;;;;;;;;;;;13.10;99.90;;;;;;4982279;28;20041;-79
2023/05/12 13:25:25;;;;;;;;;;;13.10;99.90;;;;;;4970308;28;20036;-81
2023/05/12 13:27:54;;;;;;;;;;;13.10;99.90;;;;;;4967563;28;20027;-79
2023/05/12 13:30:24;;;;;;;;;;;13.10;99.90;;;;;;4968550;28;19926;-81
2023/05/12 13:32:53;;;;;;;;;;;13.10;99.90;;;;;;4987150;28;19932;-81
2023/05/12 13:35:22;;;;;;;;;;;13.10;99.90;;;;;;4983558;28;19996;-79
2023/05/12 13:37:49;;;;;;;;;;;13.20;99.90;;;;;;4979810;28;20380;-79
2023/05/12 13:40:16;;;;;;;;;;;13.20;99.90;;;;;;4977517;28;19934;-80
2023/05/12 13:42:46;;;;;;;;;;;13.10;99.90;;;;;;4976039;28;20319;-78
2023/05/12 13:45:13;;;;;;;;;;;13.10;99.90;;;;;;4976675;28;19926;-79
2023/05/12 13:47:40;;;;;;;;;;;13.20;99.90;;;;;;4961224;28;19930;-79
2023/05/12 13:50:08;;;;;;;;;;;13.10;99.90;;;;;;4958451;28;19965;-78
2023/05/12 13:52:51;;;;;;;;;;;13.20;99.90;;;;;;4983040;28;19926;-78
2023/05/12 13:55:19;;;;;;;;;;;13.20;99.90;;;;;;4982819;28;20638;-79
2023/05/12 13:57:46;;;;;;;;;;;13.20;99.90;;;;;;4978874;28;19951;-80
2023/05/12 14:00:15;;;;;;;;;;;13.20;99.90;;;;;;4983838;28;19934;-79
2023/05/12 14:02:45;;;;;;;;;;;13.20;99.90;;;;;;4984889;28;19980;-80
2023/05/12 14:05:12;;;;;;;;;;;13.20;99.90;;;;;;4983737;28;20349;-79
2023/05/12 14:07:41;;;;;;;;;;;13.20;99.90;;;;;;4963863;28;19925;-78
2023/05/12 14:10:08;;;;;;;;;;;13.20;99.90;;;;;;4963653;28;19933;-80
2023/05/12 14:12:35;;;;;;;;;;;13.20;99.90;;;;;;4981314;28;19972;-83
2023/05/12 14:15:05;;;;;;;;;;;13.20;99.90;;;;;;4966245;28;19961;-79
2023/05/12 14:17:32;;;;;;;;;;;13.20;99.90;;;;;;4968411;28;19935;-78
2023/05/12 14:20:00;;;;;;;;;;;13.20;99.90;;;;;;4971659;28;19926;-81
2023/05/12 14:22:31;;;;;;;;;;;13.20;99.90;;;;;;4983084;28;19956;-79
2023/05/12 14:25:00;;;;;;;;;;;13.20;99.90;;;;;;4960090;28;19934;-79
2023/05/12 14:27:27;;;;;;;;;;;13.20;99.90;;;;;;4988182;28;19980;-84